Time;durP1;ratioP1;P1;durP2;ratioP2;P2;SDS_P1;SDS_P2;PMS_P1;PMS_P2;Temp;Humidity;BMP_temperature;BMP_pressure;BME280_temperature;BME280_humidity;BME280_pressure;Samples;Min_cycle;Max_cycle;Signal;HPM_P1;HPM_P2
2022/03/14 00:00:42;;;;;;;1.15;0.95;;;13.40;57.30;;;;;;5024209;28;20029;-87
2022/03/14 00:03:07;;;;;;;1.13;1.00;;;13.30;57.80;;;;;;5041043;28;20029;-88
2022/03/14 00:05:33;;;;;;;1.50;1.10;;;13.30;57.50;;;;;;5011195;28;20348;-87
2022/03/14 00:08:00;;;;;;;1.97;0.90;;;13.30;58.10;;;;;;5007528;28;20036;-87
2022/03/14 00:10:25;;;;;;;1.35;0.90;;;13.20;58.10;;;;;;5023363;28;20083;-88
2022/03/14 00:12:55;;;;;;;1.38;1.00;;;13.20;58.00;;;;;;5047787;28;20211;-87
2022/03/14 00:15:22;;;;;;;1.38;1.10;;;13.20;59.20;;;;;;5031002;28;20052;-87
2022/03/14 00:17:49;;;;;;;1.37;1.10;;;13.20;58.30;;;;;;5019457;28;20324;-87
2022/03/14 00:20:15;;;;;;;1.48;1.10;;;13.10;59.10;;;;;;5038186;28;20033;-87
2022/03/14 00:22:43;;;;;;;1.80;1.20;;;13.10;58.80;;;;;;5002892;28;20492;-87
2022/03/14 00:25:10;;;;;;;1.17;0.90;;;13.00;58.80;;;;;;5017703;28;20312;-87
2022/03/14 00:27:36;;;;;;;1.35;1.10;;;13.00;59.00;;;;;;5027137;28;20317;-87
2022/03/14 00:30:07;;;;;;;1.70;1.30;;;13.00;59.10;;;;;;5018744;28;20029;-87
2022/03/14 00:32:34;;;;;;;1.15;0.93;;;13.00;58.90;;;;;;5003587;28;20028;-87
2022/03/14 00:35:00;;;;;;;1.30;0.90;;;12.90;58.90;;;;;;5026359;28;20115;-88
2022/03/14 00:37:26;;;;;;;1.45;1.10;;;12.90;58.60;;;;;;5035363;28;20256;-87
2022/03/14 00:39:53;;;;;;;1.20;1.00;;;12.90;59.70;;;;;;5025307;28;20512;-88
2022/03/14 00:42:21;;;;;;;1.65;1.02;;;12.90;59.90;;;;;;5041435;28;20407;-88
2022/03/14 00:44:50;;;;;;;1.55;1.10;;;12.90;60.10;;;;;;5019405;28;20399;-88
2022/03/14 00:47:17;;;;;;;1.77;1.38;;;12.90;60.50;;;;;;5034955;28;20107;-87
2022/03/14 00:49:44;;;;;;;1.30;1.10;;;12.80;61.30;;;;;;5025228;28;20039;-87
2022/03/14 00:52:10;;;;;;;1.40;1.23;;;12.80;61.00;;;;;;5034784;28;20036;-87
2022/03/14 00:54:36;;;;;;;1.98;1.10;;;12.90;60.50;;;;;;5011766;28;20025;-88
2022/03/14 00:57:02;;;;;;;1.05;0.90;;;12.90;60.30;;;;;;5040238;28;20053;-87
2022/03/14 00:59:28;;;;;;;1.20;1.00;;;12.90;60.10;;;;;;5024968;28;20063;-88
2022/03/14 01:01:54;;;;;;;1.30;1.00;;;12.90;60.40;;;;;;5045650;28;20270;-88
2022/03/14 01:04:21;;;;;;;1.05;0.95;;;12.80;60.00;;;;;;5015846;28;20067;-88
2022/03/14 01:06:46;;;;;;;1.20;1.02;;;12.90;60.50;;;;;;5012443;28;20039;-88
2022/03/14 01:09:14;;;;;;;1.50;1.20;;;12.90;60.50;;;;;;5017664;28;20010;-87
2022/03/14 01:11:43;;;;;;;1.85;1.23;;;12.90;61.20;;;;;;5020819;28;20515;-88
2022/03/14 01:14:09;;;;;;;1.58;1.10;;;12.90;61.30;;;;;;5025436;28;20078;-87
2022/03/14 01:16:37;;;;;;;1.83;1.13;;;12.80;61.10;;;;;;5021427;28;20039;-88
2022/03/14 01:19:03;;;;;;;1.37;0.97;;;12.80;61.50;;;;;;4989496;28;20579;-87
2022/03/14 01:21:30;;;;;;;1.40;1.10;;;12.80;61.60;;;;;;5055705;28;20020;-88
2022/03/14 01:23:59;;;;;;;1.48;1.30;;;12.80;61.30;;;;;;5015787;28;20037;-88
2022/03/14 01:26:25;;;;;;;1.63;1.20;;;12.80;62.50;;;;;;5044316;28;20028;-88
2022/03/14 01:28:51;;;;;;;2.40;1.50;;;12.80;62.70;;;;;;5024232;28;20029;-87
2022/03/14 01:31:18;;;;;;;1.42;1.10;;;12.80;62.10;;;;;;5045763;28;20083;-88
2022/03/14 01:33:44;;;;;;;2.08;1.30;;;12.70;61.70;;;;;;5037239;28;20476;-87
2022/03/14 01:36:10;;;;;;;1.10;0.87;;;12.70;62.80;;;;;;5038923;28;20021;-87
2022/03/14 01:38:35;;;;;;;1.20;1.00;;;12.70;61.70;;;;;;5009515;28;20033;-88
2022/03/14 01:41:01;;;;;;;1.13;1.00;;;12.70;61.30;;;;;;5012586;28;20239;-88
2022/03/14 01:43:27;;;;;;;1.20;1.02;;;12.60;61.80;;;;;;5030705;28;20038;-88
2022/03/14 01:45:59;;;;;;;1.13;0.97;;;12.60;61.60;;;;;;5022743;28;20033;-87
2022/03/14 01:48:25;;;;;;;1.70;1.00;;;12.60;62.00;;;;;;5022037;28;20033;-87
2022/03/14 01:50:52;;;;;;;1.55;1.00;;;12.60;61.20;;;;;;5028907;28;20180;-87
2022/03/14 01:53:19;;;;;;;2.65;1.27;;;12.60;61.80;;;;;;5042547;28;20029;-88
2022/03/14 01:55:47;;;;;;;1.50;1.00;;;12.60;61.70;;;;;;4995066;28;20029;-88
2022/03/14 01:58:14;;;;;;;1.98;1.30;;;12.60;62.80;;;;;;5042851;28;20109;-88
2022/03/14 02:00:39;;;;;;;1.70;1.40;;;12.60;62.50;;;;;;5036232;28;20021;-85
2022/03/14 02:03:05;;;;;;;1.83;1.48;;;12.60;62.20;;;;;;5043839;28;20047;-87
2022/03/14 02:05:35;;;;;;;1.40;1.20;;;12.60;63.00;;;;;;5015513;28;20317;-86
2022/03/14 02:08:01;;;;;;;1.63;1.30;;;12.50;62.40;;;;;;5040236;28;20237;-86
2022/03/14 02:10:26;;;;;;;2.22;1.45;;;12.60;62.40;;;;;;5014408;28;20443;-85
2022/03/14 02:12:52;;;;;;;1.80;1.20;;;12.50;62.50;;;;;;5007072;28;20064;-85
2022/03/14 02:15:19;;;;;;;1.30;1.07;;;12.50;62.60;;;;;;5038995;28;20045;-86
2022/03/14 02:17:44;;;;;;;1.52;1.15;;;12.50;62.10;;;;;;5019731;28;20390;-86
2022/03/14 02:20:10;;;;;;;2.17;1.60;;;12.50;62.10;;;;;;5033478;28;20036;-86
2022/03/14 02:22:36;;;;;;;2.07;1.53;;;12.50;63.30;;;;;;5038750;28;20033;-85
2022/03/14 02:25:01;;;;;;;2.97;1.80;;;12.50;63.00;;;;;;5037096;28;20365;-85
2022/03/14 02:27:27;;;;;;;1.77;1.40;;;12.40;63.20;;;;;;5043092;28;20036;-86
2022/03/14 02:29:53;;;;;;;1.92;1.48;;;12.40;62.70;;;;;;5020264;28;20263;-86
2022/03/14 02:32:19;;;;;;;2.73;1.73;;;12.40;62.40;;;;;;5017600;28;20035;-86
2022/03/14 02:34:45;;;;;;;3.08;1.90;;;12.40;63.30;;;;;;5030948;28;20108;-86
2022/03/14 02:37:10;;;;;;;2.70;1.98;;;12.40;63.40;;;;;;5052664;28;20215;-86
2022/03/14 02:39:37;;;;;;;2.63;1.50;;;12.30;64.10;;;;;;5038253;28;20032;-86
2022/03/14 02:42:04;;;;;;;2.13;1.50;;;12.30;63.00;;;;;;5027918;28;20036;-85
2022/03/14 02:44:31;;;;;;;2.70;1.90;;;12.30;62.70;;;;;;5036269;28;20574;-86
2022/03/14 02:46:58;;;;;;;2.40;1.60;;;12.30;62.90;;;;;;5028328;28;20029;-87
2022/03/14 02:49:23;;;;;;;2.38;1.75;;;12.20;63.30;;;;;;5035482;28;20304;-85
2022/03/14 02:51:50;;;;;;;2.13;1.63;;;12.20;63.20;;;;;;5028540;28;20033;-86
2022/03/14 02:54:16;;;;;;;1.77;1.50;;;12.10;62.50;;;;;;5038167;28;20147;-86
2022/03/14 02:56:41;;;;;;;3.00;1.70;;;12.10;62.60;;;;;;5025050;28;20044;-86
2022/03/14 02:59:08;;;;;;;3.33;2.00;;;12.00;62.40;;;;;;5005309;28;20033;-86
2022/03/14 03:01:35;;;;;;;2.65;1.70;;;12.00;62.90;;;;;;5040668;28;20036;-85
2022/03/14 03:04:00;;;;;;;2.20;1.50;;;11.90;62.60;;;;;;5040926;28;20063;-86
2022/03/14 03:06:27;;;;;;;4.43;2.00;;;11.90;62.90;;;;;;5012149;28;20207;-86
2022/03/14 03:08:54;;;;;;;2.97;2.10;;;11.80;63.10;;;;;;5036572;28;20040;-86
2022/03/14 03:11:22;;;;;;;2.70;2.00;;;11.80;63.70;;;;;;5026773;28;20430;-86
2022/03/14 03:13:49;;;;;;;3.00;2.07;;;11.80;63.70;;;;;;5040646;28;20072;-86
2022/03/14 03:16:15;;;;;;;3.03;2.13;;;11.70;63.30;;;;;;5021384;28;20322;-86
2022/03/14 03:18:42;;;;;;;3.05;2.10;;;11.70;63.80;;;;;;5036881;28;20385;-86
2022/03/14 03:21:07;;;;;;;3.08;2.08;;;11.70;63.80;;;;;;5026932;28;20396;-86
2022/03/14 03:23:34;;;;;;;4.23;2.30;;;11.70;64.00;;;;;;5037166;28;20040;-85
2022/03/14 03:26:00;;;;;;;2.75;2.00;;;11.70;64.10;;;;;;5042837;28;20029;-86
2022/03/14 03:28:26;;;;;;;3.00;2.03;;;11.60;64.10;;;;;;5006269;28;20037;-86
2022/03/14 03:30:52;;;;;;;2.75;1.98;;;11.70;64.10;;;;;;5023761;28;20120;-85
2022/03/14 03:33:18;;;;;;;3.78;2.30;;;11.70;63.80;;;;;;5036329;28;20037;-86
2022/03/14 03:35:43;;;;;;;4.13;2.60;;;11.70;64.10;;;;;;5039190;28;20535;-85
2022/03/14 03:38:09;;;;;;;5.28;3.28;;;11.70;64.40;;;;;;5009474;28;20044;-86
2022/03/14 03:40:35;;;;;;;4.87;2.87;;;11.70;64.30;;;;;;5040662;28;20325;-87
2022/03/14 03:43:01;;;;;;;3.47;2.55;;;11.70;64.90;;;;;;5022176;28;20025;-86
2022/03/14 03:45:26;;;;;;;4.50;2.80;;;11.70;64.60;;;;;;5038026;28;20130;-86
2022/03/14 03:47:53;;;;;;;4.82;2.80;;;11.70;65.00;;;;;;5018651;28;20056;-86
2022/03/14 03:50:20;;;;;;;3.50;2.60;;;11.80;65.30;;;;;;5034018;28;20631;-86
2022/03/14 03:52:45;;;;;;;3.80;2.58;;;11.80;65.30;;;;;;5026929;28;20062;-86
2022/03/14 03:55:11;;;;;;;3.45;2.75;;;11.80;64.90;;;;;;5036464;28;20394;-86
2022/03/14 03:57:37;;;;;;;5.23;3.17;;;11.90;64.90;;;;;;5036322;28;20378;-85
2022/03/14 04:00:04;;;;;;;4.88;3.25;;;11.90;65.50;;;;;;5017998;28;20472;-86
2022/03/14 04:02:35;;;;;;;5.28;2.97;;;11.90;65.90;;;;;;5013522;28;20029;-86
2022/03/14 04:05:00;;;;;;;5.30;3.80;;;11.90;65.20;;;;;;5046397;28;20033;-85
2022/03/14 04:07:26;;;;;;;7.17;3.30;;;11.90;66.00;;;;;;5027765;28;20375;-86
2022/03/14 04:09:55;;;;;;;5.70;3.45;;;11.90;65.50;;;;;;5013777;28;20025;-86
2022/03/14 04:12:26;;;;;;;4.90;3.37;;;11.90;66.00;;;;;;5037979;28;20343;-86
2022/03/14 04:14:52;;;;;;;4.38;2.92;;;11.90;65.80;;;;;;5005406;28;20022;-86
2022/03/14 04:17:19;;;;;;;4.82;3.20;;;11.90;65.70;;;;;;5004586;28;20038;-86
2022/03/14 04:19:45;;;;;;;4.45;2.80;;;11.90;65.80;;;;;;5020616;28;20052;-86
2022/03/14 04:22:13;;;;;;;5.32;3.03;;;12.00;65.60;;;;;;5040339;28;20121;-86
2022/03/14 04:24:38;;;;;;;5.23;3.00;;;12.00;65.90;;;;;;5001446;28;20048;-85
2022/03/14 04:27:04;;;;;;;4.65;2.85;;;12.00;66.30;;;;;;5016261;28;20060;-86
2022/03/14 04:29:30;;;;;;;4.88;2.90;;;12.00;65.80;;;;;;5036943;28;20040;-86
2022/03/14 04:31:56;;;;;;;3.90;2.40;;;12.00;65.40;;;;;;5023577;28;20081;-86
2022/03/14 04:34:22;;;;;;;5.10;3.20;;;11.90;65.20;;;;;;5040281;28;20064;-87
2022/03/14 04:36:50;;;;;;;5.40;3.10;;;12.00;65.40;;;;;;5024473;28;20025;-86
2022/03/14 04:39:17;;;;;;;4.22;2.88;;;12.00;65.40;;;;;;5029261;28;20398;-85
2022/03/14 04:41:43;;;;;;;4.53;2.72;;;12.00;65.30;;;;;;5043436;28;20032;-86
2022/03/14 04:44:09;;;;;;;3.87;2.60;;;12.00;65.90;;;;;;5029086;28;20563;-86
2022/03/14 04:46:35;;;;;;;4.68;3.00;;;12.00;65.60;;;;;;5023957;28;20068;-86
2022/03/14 04:49:04;;;;;;;4.90;2.75;;;12.00;66.00;;;;;;5040971;28;20452;-86
2022/03/14 04:51:32;;;;;;;5.45;3.10;;;12.00;65.40;;;;;;5041211;28;20061;-86
2022/03/14 04:53:58;;;;;;;4.60;2.63;;;12.00;65.40;;;;;;5023353;28;20025;-86
2022/03/14 04:56:24;;;;;;;3.93;2.80;;;12.00;65.30;;;;;;5049023;28;20535;-86
2022/03/14 04:58:50;;;;;;;4.57;2.97;;;12.00;65.60;;;;;;5051169;28;20029;-86
2022/03/14 05:01:20;;;;;;;6.47;3.38;;;12.00;65.90;;;;;;5032519;28;20020;-86
2022/03/14 05:03:45;;;;;;;5.13;2.93;;;12.00;65.70;;;;;;5012337;28;20275;-86
2022/03/14 05:06:11;;;;;;;4.45;2.58;;;12.00;65.50;;;;;;5020284;28;20087;-85
2022/03/14 05:08:37;;;;;;;4.10;2.60;;;12.00;65.40;;;;;;5025219;28;20025;-86
2022/03/14 05:11:04;;;;;;;3.97;2.40;;;12.00;65.40;;;;;;5032643;28;20074;-86
2022/03/14 05:13:30;;;;;;;4.63;2.72;;;12.00;65.40;;;;;;5033900;28;20045;-86
2022/03/14 05:15:56;;;;;;;3.50;2.35;;;12.00;65.50;;;;;;5020230;28;20031;-85
2022/03/14 05:18:21;;;;;;;5.03;2.80;;;12.00;66.00;;;;;;5016701;28;20658;-86
2022/03/14 05:20:47;;;;;;;3.80;2.67;;;12.00;65.50;;;;;;5021009;28;20052;-86
2022/03/14 05:23:13;;;;;;;5.70;3.08;;;12.00;65.20;;;;;;5036879;28;20296;-86
2022/03/14 05:25:38;;;;;;;4.40;2.47;;;12.00;65.40;;;;;;5040234;28;20112;-86
2022/03/14 05:28:04;;;;;;;4.53;3.10;;;12.00;65.30;;;;;;5029467;28;20031;-86
2022/03/14 05:30:30;;;;;;;4.47;3.15;;;12.10;65.50;;;;;;5022187;28;20035;-86
2022/03/14 05:32:56;;;;;;;5.15;2.90;;;12.00;66.50;;;;;;5026777;28;20033;-86
2022/03/14 05:35:21;;;;;;;4.37;2.47;;;12.00;65.90;;;;;;5026966;28;20417;-86
2022/03/14 05:37:47;;;;;;;7.03;2.70;;;12.00;65.60;;;;;;5032385;28;20023;-86
2022/03/14 05:40:15;;;;;;;4.57;2.35;;;12.00;65.40;;;;;;5021064;28;20638;-85
2022/03/14 05:42:43;;;;;;;4.35;2.50;;;12.10;65.50;;;;;;5030966;28;20079;-86
2022/03/14 05:45:09;;;;;;;5.65;3.20;;;12.00;65.40;;;;;;5055069;28;20172;-86
2022/03/14 05:47:35;;;;;;;4.88;3.30;;;12.00;66.00;;;;;;5031039;28;20196;-86
2022/03/14 05:50:01;;;;;;;5.07;3.10;;;12.10;66.80;;;;;;4999363;28;20113;-86
2022/03/14 05:52:29;;;;;;;5.55;2.85;;;12.00;65.90;;;;;;5042204;28;20229;-86
2022/03/14 05:54:55;;;;;;;4.95;3.03;;;12.00;66.00;;;;;;5058992;28;20028;-86
2022/03/14 05:57:21;;;;;;;4.22;2.80;;;12.00;66.00;;;;;;5036695;28;20106;-85
2022/03/14 05:59:47;;;;;;;4.50;2.80;;;12.00;65.80;;;;;;5017489;28;20022;-86
2022/03/14 06:02:21;;;;;;;4.45;2.53;;;12.00;65.60;;;;;;4996538;28;20609;-86
2022/03/14 06:04:48;;;;;;;4.20;2.40;;;12.00;66.20;;;;;;5029451;28;20672;-86
2022/03/14 06:07:14;;;;;;;4.38;2.60;;;12.00;65.70;;;;;;5011382;28;20026;-85
2022/03/14 06:09:40;;;;;;;4.63;2.42;;;12.00;66.50;;;;;;5057779;28;20474;-86
2022/03/14 06:12:06;;;;;;;4.63;2.70;;;12.00;65.70;;;;;;5027810;28;20258;-86
2022/03/14 06:14:32;;;;;;;6.43;3.65;;;12.00;66.00;;;;;;5008444;28;20039;-85
2022/03/14 06:16:58;;;;;;;4.65;3.00;;;12.00;66.20;;;;;;5008101;28;20306;-85
2022/03/14 06:19:24;;;;;;;5.70;3.10;;;12.00;65.80;;;;;;5020354;28;20020;-86
2022/03/14 06:21:50;;;;;;;4.18;2.45;;;12.00;66.00;;;;;;5006919;28;20326;-85
2022/03/14 06:24:16;;;;;;;4.90;3.05;;;12.00;65.80;;;;;;5023941;28;20134;-86
2022/03/14 06:26:42;;;;;;;3.87;2.77;;;12.00;66.70;;;;;;5022608;28;20021;-86
2022/03/14 06:29:08;;;;;;;4.82;3.30;;;12.00;66.30;;;;;;5009908;28;20468;-85
2022/03/14 06:31:34;;;;;;;5.43;2.97;;;12.00;66.50;;;;;;5022046;28;20033;-86
2022/03/14 06:34:00;;;;;;;4.30;2.50;;;12.00;66.50;;;;;;5025781;28;20032;-86
2022/03/14 06:36:27;;;;;;;5.25;2.42;;;12.00;66.10;;;;;;5001205;28;20083;-86
2022/03/14 06:38:55;;;;;;;5.05;2.67;;;12.00;66.10;;;;;;5021424;28;20618;-86
2022/03/14 06:41:21;;;;;;;3.92;2.72;;;12.00;65.80;;;;;;5022351;28;20063;-86
2022/03/14 06:43:46;;;;;;;4.23;3.10;;;12.00;66.80;;;;;;5020018;28;20520;-86
2022/03/14 06:46:12;;;;;;;4.43;2.75;;;12.00;66.90;;;;;;5030346;28;20037;-86
2022/03/14 06:48:40;;;;;;;5.47;3.40;;;12.00;66.30;;;;;;5011156;28;20062;-86
2022/03/14 06:51:06;;;;;;;3.20;2.42;;;12.00;66.20;;;;;;5005799;28;20115;-86
2022/03/14 06:53:32;;;;;;;6.50;2.67;;;12.00;66.30;;;;;;5005669;28;20031;-85
2022/03/14 06:55:58;;;;;;;4.65;3.00;;;12.00;66.30;;;;;;5014888;28;20310;-86
2022/03/14 06:58:24;;;;;;;4.88;3.03;;;12.00;66.90;;;;;;5047828;28;20115;-86
2022/03/14 07:00:50;;;;;;;4.27;2.70;;;12.00;66.70;;;;;;5024071;28;20033;-86
2022/03/14 07:03:16;;;;;;;4.45;2.75;;;12.00;66.60;;;;;;5027393;28;20024;-86
2022/03/14 07:05:42;;;;;;;5.80;3.22;;;12.10;66.70;;;;;;5012190;28;20028;-86
2022/03/14 07:08:10;;;;;;;3.57;2.63;;;12.10;66.90;;;;;;5013705;28;20488;-86
2022/03/14 07:10:36;;;;;;;5.23;2.50;;;12.10;66.80;;;;;;5021068;28;20768;-85
2022/03/14 07:13:02;;;;;;;4.40;2.97;;;12.10;66.70;;;;;;5006953;28;20024;-86
2022/03/14 07:15:28;;;;;;;5.82;3.20;;;12.10;67.00;;;;;;5018048;28;20552;-86
2022/03/14 07:17:54;;;;;;;5.22;2.80;;;12.20;66.60;;;;;;5030609;28;20381;-86
2022/03/14 07:20:20;;;;;;;5.43;3.13;;;12.20;66.80;;;;;;5010347;28;20075;-86
2022/03/14 07:22:56;;;;;;;4.95;2.75;;;12.20;66.70;;;;;;5007050;28;20040;-86
2022/03/14 07:25:24;;;;;;;4.68;2.80;;;12.20;67.00;;;;;;5026483;28;20549;-86
2022/03/14 07:27:52;;;;;;;4.03;2.80;;;12.20;67.10;;;;;;5046812;28;20172;-86
2022/03/14 07:30:17;;;;;;;4.47;2.60;;;12.30;67.30;;;;;;5029957;28;20033;-85
2022/03/14 07:32:43;;;;;;;5.25;3.05;;;12.30;67.10;;;;;;5013900;28;20040;-86
2022/03/14 07:35:10;;;;;;;4.57;2.80;;;12.40;67.10;;;;;;5009207;28;20253;-86
2022/03/14 07:37:36;;;;;;;4.10;2.50;;;12.40;67.10;;;;;;4998024;28;20350;-86
2022/03/14 07:40:03;;;;;;;3.85;2.30;;;12.40;68.00;;;;;;5025766;28;20055;-86
2022/03/14 07:42:28;;;;;;;4.95;2.75;;;12.50;67.30;;;;;;5026977;28;20112;-86
2022/03/14 07:44:54;;;;;;;4.37;2.80;;;12.60;67.70;;;;;;5030854;28;20178;-86
2022/03/14 07:47:20;;;;;;;4.50;2.70;;;12.60;67.20;;;;;;5012279;28;20201;-85
2022/03/14 07:49:46;;;;;;;3.90;2.50;;;12.60;67.00;;;;;;5044463;28;20171;-85
2022/03/14 07:52:11;;;;;;;4.68;2.88;;;12.70;66.80;;;;;;5006779;28;20032;-86
2022/03/14 07:54:38;;;;;;;4.83;2.60;;;12.80;66.90;;;;;;5031721;28;20035;-86
2022/03/14 07:57:04;;;;;;;6.25;2.60;;;12.90;66.60;;;;;;5022339;28;20025;-86
2022/03/14 07:59:29;;;;;;;4.30;2.42;;;12.80;66.60;;;;;;5028938;28;20029;-85
2022/03/14 08:01:55;;;;;;;3.53;2.30;;;12.80;66.40;;;;;;5035589;28;20326;-86
2022/03/14 08:04:22;;;;;;;4.50;2.58;;;12.90;66.50;;;;;;5034946;28;20116;-86
2022/03/14 08:06:49;;;;;;;6.07;2.80;;;12.90;66.90;;;;;;5046386;28;20039;-86
2022/03/14 08:09:15;;;;;;;4.03;2.37;;;13.00;66.90;;;;;;5021803;28;20021;-86
2022/03/14 08:11:41;;;;;;;4.32;2.20;;;13.00;66.70;;;;;;5015147;28;20045;-86
2022/03/14 08:14:07;;;;;;;5.82;2.40;;;13.00;66.70;;;;;;5022180;28;20149;-86
2022/03/14 08:16:33;;;;;;;4.97;2.30;;;13.10;66.80;;;;;;5048353;28;20435;-86
2022/03/14 08:18:59;;;;;;;4.53;2.35;;;13.10;66.80;;;;;;5000494;28;20026;-86
2022/03/14 08:21:25;;;;;;;5.40;2.70;;;13.20;66.60;;;;;;5043500;28;20039;-86
2022/03/14 08:23:51;;;;;;;5.65;2.63;;;13.20;66.80;;;;;;5017876;28;20123;-86
2022/03/14 08:26:17;;;;;;;4.80;2.60;;;13.20;66.60;;;;;;5022442;28;20174;-85
2022/03/14 08:28:44;;;;;;;6.10;2.70;;;13.20;66.70;;;;;;5029782;28;20291;-86
2022/03/14 08:31:10;;;;;;;5.32;2.55;;;13.30;66.70;;;;;;5032899;28;20604;-86
2022/03/14 08:33:40;;;;;;;5.13;2.60;;;13.30;67.30;;;;;;5030921;28;20064;-86
2022/03/14 08:36:06;;;;;;;5.60;2.80;;;13.30;66.30;;;;;;5019888;28;20390;-86
2022/03/14 08:38:32;;;;;;;4.63;2.70;;;13.30;66.50;;;;;;5033551;28;20125;-86
2022/03/14 08:40:58;;;;;;;4.33;2.30;;;13.30;67.30;;;;;;4991928;28;20416;-85
2022/03/14 08:43:24;;;;;;;4.75;2.05;;;13.30;66.50;;;;;;5026986;28;20033;-86
2022/03/14 08:45:50;;;;;;;6.25;2.28;;;13.30;66.30;;;;;;5017646;28;20116;-87
2022/03/14 08:48:16;;;;;;;5.00;2.10;;;13.40;67.70;;;;;;5038788;28;20040;-87
2022/03/14 08:50:42;;;;;;;4.43;2.10;;;13.40;67.20;;;;;;5018466;28;20036;-86
2022/03/14 08:53:08;;;;;;;5.72;2.20;;;13.50;67.20;;;;;;5025714;28;20419;-86
2022/03/14 08:55:34;;;;;;;4.80;1.90;;;13.60;67.20;;;;;;5029049;28;20021;-86
2022/03/14 08:58:01;;;;;;;5.30;2.10;;;13.70;66.80;;;;;;5028053;28;20025;-85
2022/03/14 09:00:28;;;;;;;5.03;2.20;;;13.80;66.70;;;;;;5031236;28;20083;-86
2022/03/14 09:02:54;;;;;;;8.27;2.40;;;13.80;66.20;;;;;;5039463;28;20509;-86
2022/03/14 09:05:21;;;;;;;3.65;1.90;;;13.90;65.90;;;;;;5022240;28;20662;-86
2022/03/14 09:07:47;;;;;;;4.13;2.25;;;13.90;65.80;;;;;;5053231;28;20064;-86
2022/03/14 09:10:14;;;;;;;4.45;2.20;;;13.90;65.90;;;;;;5009975;28;20780;-86
2022/03/14 09:12:40;;;;;;;4.40;2.10;;;13.90;65.70;;;;;;5023430;28;20048;-86
2022/03/14 09:15:08;;;;;;;5.82;2.10;;;13.90;65.80;;;;;;4997366;28;20126;-86
2022/03/14 09:17:35;;;;;;;4.47;1.90;;;13.90;65.90;;;;;;5042443;28;20024;-86
2022/03/14 09:20:01;;;;;;;4.80;1.80;;;14.00;65.90;;;;;;5014765;28;20036;-86
2022/03/14 09:22:28;;;;;;;4.18;1.80;;;14.00;65.60;;;;;;5038353;28;20644;-85
2022/03/14 09:24:55;;;;;;;4.70;2.20;;;14.00;65.30;;;;;;5026671;28;20033;-86
2022/03/14 09:27:23;;;;;;;4.40;2.03;;;13.90;65.30;;;;;;5018574;28;20276;-86
2022/03/14 09:29:50;;;;;;;6.07;1.80;;;13.80;65.40;;;;;;5028871;28;20272;-86
2022/03/14 09:32:16;;;;;;;5.25;1.92;;;13.70;65.20;;;;;;5018487;28;20067;-86
2022/03/14 09:34:42;;;;;;;4.17;1.90;;;13.60;64.90;;;;;;5022728;28;20037;-85
2022/03/14 09:37:07;;;;;;;2.92;1.50;;;13.50;65.00;;;;;;5024724;28;20017;-86
2022/03/14 09:39:34;;;;;;;3.85;1.50;;;13.40;64.90;;;;;;5031561;28;20047;-86
2022/03/14 09:42:01;;;;;;;3.47;1.80;;;13.30;65.20;;;;;;5000103;28;20509;-86
2022/03/14 09:44:29;;;;;;;4.87;1.80;;;13.20;65.60;;;;;;5006699;28;20363;-86
2022/03/14 09:46:58;;;;;;;3.15;1.60;;;13.20;65.80;;;;;;5023052;28;20480;-87
2022/03/14 09:49:26;;;;;;;3.50;1.75;;;13.20;66.20;;;;;;5048118;28;20029;-86
2022/03/14 09:51:53;;;;;;;4.95;2.30;;;13.10;67.20;;;;;;5036297;28;20477;-87
2022/03/14 09:54:21;;;;;;;4.40;1.88;;;13.20;66.90;;;;;;5052802;28;20230;-86
2022/03/14 09:56:47;;;;;;;4.03;1.80;;;13.20;67.20;;;;;;5030702;28;20021;-86
2022/03/14 09:59:14;;;;;;;5.32;2.00;;;13.20;66.60;;;;;;5004212;28;20253;-86
2022/03/14 10:01:41;;;;;;;3.13;1.83;;;13.20;66.40;;;;;;5039612;28;20029;-86
2022/03/14 10:04:08;;;;;;;3.72;1.70;;;13.20;66.30;;;;;;5026421;28;20206;-86
2022/03/14 10:06:36;;;;;;;3.35;1.50;;;13.20;66.70;;;;;;5030334;28;20029;-85
2022/03/14 10:09:03;;;;;;;3.80;1.60;;;13.20;66.90;;;;;;5038179;28;20036;-87
2022/03/14 10:11:29;;;;;;;3.58;1.65;;;13.20;67.10;;;;;;5039895;28;20044;-86
2022/03/14 10:13:55;;;;;;;4.47;1.77;;;13.30;66.80;;;;;;5002395;28;20052;-87
2022/03/14 10:16:20;;;;;;;4.97;1.70;;;13.30;66.80;;;;;;5019243;28;20602;-86
2022/03/14 10:18:54;;;;;;;6.30;2.03;;;13.30;66.80;;;;;;5037882;28;20051;-86
2022/03/14 10:21:31;;;;;;;6.35;2.00;;;13.30;67.30;;;;;;5037066;28;20138;-86
2022/03/14 10:24:00;;;;;;;3.45;1.90;;;13.40;67.40;;;;;;5033963;28;20044;-86
2022/03/14 10:26:26;;;;;;;5.97;1.70;;;13.40;66.90;;;;;;5058259;28;20439;-86
2022/03/14 10:28:57;;;;;;;4.20;1.70;;;13.40;66.80;;;;;;5007356;28;20033;-86
2022/03/14 10:31:29;;;;;;;3.65;1.60;;;13.40;67.00;;;;;;5044970;28;20033;-86
2022/03/14 10:34:24;;;;;;;3.83;1.73;;;13.40;67.00;;;;;;5038257;28;20450;-87
2022/03/14 10:36:51;;;;;;;3.70;1.60;;;13.50;68.00;;;;;;5000520;28;20269;-87
2022/03/14 10:39:27;;;;;;;3.60;1.80;;;13.60;67.10;;;;;;5018697;28;20568;-87
2022/03/14 10:42:07;;;;;;;3.72;1.73;;;13.70;67.50;;;;;;5051620;28;20028;-86
2022/03/14 10:44:37;;;;;;;3.70;1.63;;;13.80;67.50;;;;;;5014563;28;20082;-87
2022/03/14 10:47:06;;;;;;;3.92;1.67;;;13.90;67.30;;;;;;5012399;28;20031;-86
2022/03/14 10:49:34;;;;;;;4.25;1.60;;;14.00;67.20;;;;;;5022179;28;20033;-86
2022/03/14 10:52:07;;;;;;;4.23;1.70;;;14.10;66.80;;;;;;5034979;28;20025;-86
2022/03/14 10:54:38;;;;;;;4.28;1.52;;;14.20;66.80;;;;;;5022665;28;20481;-87
2022/03/14 10:57:11;;;;;;;2.30;1.45;;;14.30;66.60;;;;;;5040054;28;20094;-86
2022/03/14 10:59:37;;;;;;;4.82;1.90;;;14.30;66.60;;;;;;5057845;28;20419;-86
2022/03/14 11:02:06;;;;;;;4.00;1.80;;;14.40;66.90;;;;;;4990817;28;20025;-86
2022/03/14 11:04:55;;;;;;;3.00;1.87;;;14.60;67.10;;;;;;5022987;28;20029;-86
2022/03/14 11:07:24;;;;;;;4.68;1.67;;;14.70;66.60;;;;;;5056376;28;20047;-87
2022/03/14 11:09:52;;;;;;;3.92;1.65;;;14.80;66.40;;;;;;5016462;28;20034;-87
2022/03/14 11:12:23;;;;;;;4.28;1.75;;;14.90;66.30;;;;;;5027492;28;20053;-87
2022/03/14 11:14:54;;;;;;;4.40;1.95;;;15.00;66.00;;;;;;5005429;28;20029;-86
2022/03/14 11:17:25;;;;;;;5.63;2.23;;;15.10;65.50;;;;;;5010469;28;20056;-86
2022/03/14 11:19:52;;;;;;;6.05;2.20;;;15.20;65.10;;;;;;5022218;28;20018;-87
2022/03/14 11:22:20;;;;;;;4.18;1.98;;;15.10;64.80;;;;;;5015256;28;20384;-87
2022/03/14 11:24:48;;;;;;;4.03;2.30;;;15.20;65.00;;;;;;5015714;28;20222;-86
2022/03/14 11:27:24;;;;;;;4.82;2.13;;;15.20;64.80;;;;;;5017145;28;20481;-87
2022/03/14 11:29:53;;;;;;;3.63;1.93;;;15.30;65.00;;;;;;5027186;28;20031;-86
2022/03/14 11:32:20;;;;;;;5.80;2.05;;;15.40;65.60;;;;;;4995055;28;20135;-88
2022/03/14 11:34:47;;;;;;;6.68;2.40;;;15.60;67.70;;;;;;5010656;28;20052;-87
2022/03/14 11:37:13;;;;;;;5.13;2.33;;;16.00;68.00;;;;;;5004823;28;20317;-86
2022/03/14 11:39:40;;;;;;;6.15;2.55;;;16.30;67.00;;;;;;5001365;28;20523;-86
2022/03/14 11:42:07;;;;;;;5.73;1.90;;;16.50;65.60;;;;;;5027681;28;20100;-86
2022/03/14 11:44:34;;;;;;;4.50;2.00;;;16.80;65.00;;;;;;5034063;28;20032;-87
2022/03/14 11:47:00;;;;;;;4.07;1.92;;;16.90;64.40;;;;;;5026043;28;20686;-87
2022/03/14 11:49:30;;;;;;;2.67;1.73;;;17.00;63.80;;;;;;5010547;28;20263;-86
2022/03/14 11:52:19;;;;;;;3.58;1.90;;;17.00;62.80;;;;;;5023908;28;20048;-86
2022/03/14 11:54:57;;;;;;;5.37;1.93;;;17.00;61.60;;;;;;5005309;28;20032;-85
2022/03/14 11:57:36;;;;;;;4.22;1.90;;;16.90;61.50;;;;;;5031637;28;20542;-87
2022/03/14 12:00:25;;;;;;;3.72;1.70;;;17.00;62.50;;;;;;5020664;28;20025;-87
2022/03/14 12:03:01;;;;;;;3.25;1.77;;;17.20;64.40;;;;;;5026647;28;20029;-87
2022/03/14 12:05:38;;;;;;;4.05;1.60;;;17.70;65.50;;;;;;5031371;28;20068;-85
2022/03/14 12:08:27;;;;;;;3.40;1.80;;;18.00;64.40;;;;;;5029037;28;20416;-86
2022/03/14 12:10:53;;;;;;;3.20;1.80;;;18.30;63.10;;;;;;5029268;28;20033;-87
2022/03/14 12:13:42;;;;;;;5.57;1.92;;;18.40;61.50;;;;;;5015513;28;20044;-87
2022/03/14 12:16:37;;;;;;;3.95;1.90;;;18.40;59.50;;;;;;5019427;28;20124;-87
2022/03/14 12:19:40;;;;;;;4.00;1.80;;;18.30;59.50;;;;;;5032166;28;20427;-87
2022/03/14 12:22:06;;;;;;;5.50;2.15;;;18.20;59.60;;;;;;5032512;28;20034;-87
2022/03/14 12:24:38;;;;;;;5.47;2.10;;;18.10;60.00;;;;;;5056985;28;20069;-87
2022/03/14 12:27:30;;;;;;;4.22;2.40;;;18.10;60.80;;;;;;5010573;28;20129;-86
2022/03/14 12:29:57;;;;;;;5.25;1.83;;;18.20;59.80;;;;;;5016359;28;20497;-87
2022/03/14 12:32:27;;;;;;;4.73;2.10;;;18.40;62.80;;;;;;5007571;28;20101;-87
2022/03/14 12:35:02;;;;;;;2.97;2.10;;;18.60;63.10;;;;;;5029030;28;20048;-87
2022/03/14 12:37:52;;;;;;;3.92;2.22;;;19.00;60.20;;;;;;5039274;28;20681;-87
2022/03/14 12:40:21;;;;;;;5.47;2.40;;;19.30;61.70;;;;;;5013526;28;20172;-87
2022/03/14 12:43:12;;;;;;;4.30;2.30;;;19.60;60.30;;;;;;5049073;28;20366;-88
2022/03/14 12:45:49;;;;;;;5.10;1.90;;;19.90;59.20;;;;;;5014945;28;20037;-87
2022/03/14 12:48:28;;;;;;;4.65;2.03;;;20.20;62.20;;;;;;5002061;28;24605;-86
2022/03/14 12:51:01;;;;;;;3.60;1.92;;;20.70;62.40;;;;;;5009004;28;20403;-85